Bookmark and Share
Track history (hours):
 

Daihatsumaru

Last reported at 2014-Apr-16 05:21 UTC. Time now 2014-Apr-16 10:36 UTC.
Position N 34°35' E 134°54'.

Length 106 m; draft 4.5 m.

Type: Cargo ship. MMSI: 431000701.

NotesDate/timePositionNaut miles runAvg speedWind from/ knotsBaromVisibWave heightAir tempDewpointWater temp
2014-Apr-16 05:21N 34°35' E 134°54'910.7
2014-Apr-16 04:33N 34°36' E 135°04'1414.3
2014-Apr-16 03:33N 34°40' E 135°21'3 2.4
2014-Apr-16 02:29N 34°41' E 135°23'0 0.0
2014-Apr-16 01:29N 34°41' E 135°23'0 0.0
2014-Apr-16 00:29N 34°41' E 135°23'0 0.0
2014-Apr-15 23:23N 34°41' E 135°23'1 1.5
2014-Apr-15 22:33N 34°41' E 135°22'1 1.0
2014-Apr-15 21:27N 34°40' E 135°21'0 0.0
2014-Apr-15 20:27N 34°40' E 135°21'0 0.0
2014-Apr-15 19:33N 34°40' E 135°21'4 3.7
2014-Apr-15 18:34N 34°37' E 135°18'1614.9
2014-Apr-15 17:31N 34°37' E 134°59'20 0.5
2014-Apr-13 22:29N 34°41' E 135°23'0 0.0
2014-Apr-13 21:29N 34°41' E 135°23'0 0.0
2014-Apr-13 20:29N 34°41' E 135°23'0 0.0
2014-Apr-13 19:29N 34°41' E 135°23'0 0.0
2014-Apr-13 18:29N 34°41' E 135°23'0 0.0
2014-Apr-13 17:29N 34°41' E 135°23'0 0.0
2014-Apr-13 16:29N 34°41' E 135°23'0 0.0
2014-Apr-13 15:17N 34°41' E 135°23'0 0.0
2014-Apr-13 14:29N 34°41' E 135°23'0 0.0
2014-Apr-13 11:23N 34°41' E 135°23'0 0.0
2014-Apr-13 09:23N 34°41' E 135°23'0 0.0
2014-Apr-13 08:17N 34°41' E 135°23'0 0.0
2014-Apr-13 07:29N 34°41' E 135°23'0 0.0
2014-Apr-13 06:17N 34°41' E 135°23'0 0.0
2014-Apr-13 05:11N 34°41' E 135°23'0 0.0
2014-Apr-13 04:29N 34°41' E 135°23'0 0.0
2014-Apr-13 03:29N 34°41' E 135°23'0 0.0
2014-Apr-13 02:23N 34°41' E 135°23'0 0.0
2014-Apr-13 01:29N 34°41' E 135°23'0 0.0
2014-Apr-13 00:29N 34°41' E 135°23'0 0.0
2014-Apr-12 23:29N 34°41' E 135°23'0 0.0
2014-Apr-12 22:29N 34°41' E 135°23'0 0.0
2014-Apr-12 21:23N 34°41' E 135°23'0 0.0
2014-Apr-12 20:29N 34°41' E 135°23'0 0.0
2014-Apr-12 19:29N 34°41' E 135°23'0 0.0
2014-Apr-12 18:29N 34°41' E 135°23'0 0.0
2014-Apr-12 17:29N 34°41' E 135°23'0 0.0
2014-Apr-12 16:17N 34°41' E 135°23'0 0.0
2014-Apr-12 15:29N 34°41' E 135°23'0 0.0
2014-Apr-12 14:29N 34°41' E 135°23'0 0.0
2014-Apr-12 13:29N 34°41' E 135°23'0 0.0
2014-Apr-12 12:29N 34°41' E 135°23'0 0.0
2014-Apr-12 11:29N 34°41' E 135°23'0 0.0
2014-Apr-12 10:29N 34°41' E 135°23'0 0.0
2014-Apr-12 09:29N 34°41' E 135°23'0 0.0
2014-Apr-12 08:23N 34°41' E 135°23'0 0.0
2014-Apr-12 07:29N 34°41' E 135°23'0 0.0
2014-Apr-12 06:17N 34°41' E 135°23'0 0.0
2014-Apr-12 05:29N 34°41' E 135°23'0 0.0
2014-Apr-12 04:29N 34°41' E 135°23'0 0.0
2014-Apr-12 03:29N 34°41' E 135°23'0 0.0
2014-Apr-12 02:29N 34°41' E 135°23'0 0.0
2014-Apr-12 01:29N 34°41' E 135°23'0 0.0
2014-Apr-12 00:29N 34°41' E 135°23'0 0.0
2014-Apr-11 23:05N 34°41' E 135°23'1 2.4
2014-Apr-11 22:33N 34°41' E 135°22'1 1.0
2014-Apr-11 21:28N 34°40' E 135°21'0 0.0
2014-Apr-11 20:28N 34°40' E 135°21'0 0.0
2014-Apr-11 19:22N 34°40' E 135°21'0 0.2
2014-Apr-11 18:34N 34°40' E 135°21'1413.8
2014-Apr-11 17:34N 34°35' E 135°05'1614.6
2014-Apr-11 16:28N 34°32' E 134°46'1 0.0
2014-Apr-10 05:18N 34°33' E 134°47'1114.2
2014-Apr-10 04:33N 34°38' E 134°59'1313.2
2014-Apr-10 03:33N 34°36' E 135°14'9 8.7
2014-Apr-10 02:33N 34°41' E 135°23'0 0.0
2014-Apr-10 01:28N 34°41' E 135°23'0 0.0
2014-Apr-10 00:16N 34°41' E 135°23'0 0.0
2014-Apr-09 23:10N 34°41' E 135°23'2 2.6
2014-Apr-09 22:33N 34°40' E 135°22'1 0.8
2014-Apr-09 21:32N 34°40' E 135°21'0 0.0
2014-Apr-09 20:33N 34°40' E 135°21'0 0.0
2014-Apr-09 19:33N 34°40' E 135°21'1110.8
2014-Apr-09 18:33N 34°35' E 135°09'1312.9
2014-Apr-09 17:34N 34°35' E 134°54'7 0.2
2014-Apr-08 04:29N 34°38' E 135°01'1314.2
2014-Apr-08 03:33N 34°37' E 135°17'7 5.7
2014-Apr-08 02:24N 34°41' E 135°23'0 0.1
2014-Apr-08 01:30N 34°41' E 135°23'0 0.0
2014-Apr-08 00:30N 34°41' E 135°23'0 0.0
2014-Apr-07 23:30N 34°41' E 135°23'2 1.6
2014-Apr-07 22:33N 34°40' E 135°22'1 0.8
2014-Apr-07 21:33N 34°40' E 135°21'0 0.0
2014-Apr-07 20:33N 34°40' E 135°21'9 9.1
2014-Apr-07 19:33N 34°35' E 135°12'  

Dump ship's entire track history

sailing weather and tide predictions

Daihatsumaru — JD2764 — position and weather